sensor_id;sensor_type;location;lat;lon;timestamp;P1;durP1;ratioP1;P2;durP2;ratioP2
35306;SDS011;21420;52.196;21.416;2023-07-24T00:00:29;6.90;;;6.00;;
35306;SDS011;21420;52.196;21.416;2023-07-24T00:02:56;6.80;;;5.80;;
35306;SDS011;21420;52.196;21.416;2023-07-24T00:05:23;7.10;;;5.90;;
35306;SDS011;21420;52.196;21.416;2023-07-24T00:07:50;12.20;;;6.80;;
35306;SDS011;21420;52.196;21.416;2023-07-24T00:10:16;8.80;;;5.90;;
35306;SDS011;21420;52.196;21.416;2023-07-24T00:12:43;10.10;;;6.40;;
35306;SDS011;21420;52.196;21.416;2023-07-24T00:15:10;6.60;;;5.60;;
35306;SDS011;21420;52.196;21.416;2023-07-24T00:17:36;6.70;;;5.90;;
35306;SDS011;21420;52.196;21.416;2023-07-24T00:20:03;7.30;;;5.90;;
35306;SDS011;21420;52.196;21.416;2023-07-24T00:22:31;8.40;;;6.70;;
35306;SDS011;21420;52.196;21.416;2023-07-24T00:24:58;8.20;;;6.10;;
35306;SDS011;21420;52.196;21.416;2023-07-24T00:27:24;7.50;;;6.00;;
35306;SDS011;21420;52.196;21.416;2023-07-24T00:29:51;6.50;;;5.90;;
35306;SDS011;21420;52.196;21.416;2023-07-24T00:32:18;8.40;;;6.20;;
35306;SDS011;21420;52.196;21.416;2023-07-24T00:34:44;8.10;;;6.20;;
35306;SDS011;21420;52.196;21.416;2023-07-24T00:37:11;7.50;;;6.20;;
35306;SDS011;21420;52.196;21.416;2023-07-24T00:39:38;8.40;;;5.90;;
35306;SDS011;21420;52.196;21.416;2023-07-24T00:42:04;7.60;;;5.90;;
35306;SDS011;21420;52.196;21.416;2023-07-24T00:44:31;7.50;;;6.30;;
35306;SDS011;21420;52.196;21.416;2023-07-24T00:46:58;10.10;;;6.30;;
35306;SDS011;21420;52.196;21.416;2023-07-24T00:49:25;7.50;;;5.10;;
35306;SDS011;21420;52.196;21.416;2023-07-24T00:51:52;9.00;;;5.80;;
35306;SDS011;21420;52.196;21.416;2023-07-24T00:54:19;9.40;;;6.20;;
35306;SDS011;21420;52.196;21.416;2023-07-24T00:56:47;8.80;;;6.10;;
35306;SDS011;21420;52.196;21.416;2023-07-24T00:59:15;12.00;;;6.20;;
35306;SDS011;21420;52.196;21.416;2023-07-24T01:01:42;8.50;;;6.40;;
35306;SDS011;21420;52.196;21.416;2023-07-24T01:04:09;6.90;;;5.80;;
35306;SDS011;21420;52.196;21.416;2023-07-24T01:06:35;6.80;;;5.90;;
35306;SDS011;21420;52.196;21.416;2023-07-24T01:09:02;7.00;;;6.20;;
35306;SDS011;21420;52.196;21.416;2023-07-24T01:11:36;8.50;;;6.00;;
35306;SDS011;21420;52.196;21.416;2023-07-24T01:16:51;8.10;;;6.80;;
35306;SDS011;21420;52.196;21.416;2023-07-24T01:25:14;8.90;;;5.70;;
35306;SDS011;21420;52.196;21.416;2023-07-24T01:27:49;6.40;;;5.60;;
35306;SDS011;21420;52.196;21.416;2023-07-24T01:30:19;9.30;;;6.60;;
35306;SDS011;21420;52.196;21.416;2023-07-24T01:32:46;8.60;;;6.20;;
35306;SDS011;21420;52.196;21.416;2023-07-24T01:35:15;7.50;;;6.50;;
35306;SDS011;21420;52.196;21.416;2023-07-24T01:37:43;8.30;;;6.40;;
35306;SDS011;21420;52.196;21.416;2023-07-24T01:40:11;8.40;;;5.70;;
35306;SDS011;21420;52.196;21.416;2023-07-24T01:42:39;7.40;;;5.60;;
35306;SDS011;21420;52.196;21.416;2023-07-24T01:45:07;9.40;;;6.10;;
35306;SDS011;21420;52.196;21.416;2023-07-24T01:47:34;6.20;;;5.60;;
35306;SDS011;21420;52.196;21.416;2023-07-24T01:50:01;7.90;;;5.60;;
35306;SDS011;21420;52.196;21.416;2023-07-24T01:52:28;7.70;;;6.20;;
35306;SDS011;21420;52.196;21.416;2023-07-24T01:54:54;7.70;;;6.00;;
35306;SDS011;21420;52.196;21.416;2023-07-24T01:57:21;8.80;;;5.60;;
35306;SDS011;21420;52.196;21.416;2023-07-24T01:59:48;9.50;;;5.30;;
35306;SDS011;21420;52.196;21.416;2023-07-24T02:02:15;7.80;;;5.80;;
35306;SDS011;21420;52.196;21.416;2023-07-24T02:04:42;8.30;;;5.40;;
35306;SDS011;21420;52.196;21.416;2023-07-24T02:07:09;12.70;;;6.20;;
35306;SDS011;21420;52.196;21.416;2023-07-24T02:09:36;7.40;;;5.30;;
35306;SDS011;21420;52.196;21.416;2023-07-24T02:12:02;7.40;;;5.30;;
35306;SDS011;21420;52.196;21.416;2023-07-24T02:14:30;9.00;;;6.20;;
35306;SDS011;21420;52.196;21.416;2023-07-24T02:17:02;5.80;;;5.20;;
35306;SDS011;21420;52.196;21.416;2023-07-24T02:19:29;7.60;;;6.10;;
35306;SDS011;21420;52.196;21.416;2023-07-24T02:21:56;6.60;;;5.90;;
35306;SDS011;21420;52.196;21.416;2023-07-24T02:24:22;6.30;;;5.70;;
35306;SDS011;21420;52.196;21.416;2023-07-24T02:26:49;7.10;;;6.10;;
35306;SDS011;21420;52.196;21.416;2023-07-24T02:29:16;6.90;;;5.80;;
35306;SDS011;21420;52.196;21.416;2023-07-24T02:31:42;9.10;;;6.00;;
35306;SDS011;21420;52.196;21.416;2023-07-24T02:34:09;6.90;;;5.40;;
35306;SDS011;21420;52.196;21.416;2023-07-24T02:36:38;6.80;;;5.70;;
35306;SDS011;21420;52.196;21.416;2023-07-24T02:39:08;7.70;;;5.60;;
35306;SDS011;21420;52.196;21.416;2023-07-24T02:41:34;9.10;;;5.80;;
35306;SDS011;21420;52.196;21.416;2023-07-24T02:44:02;7.10;;;5.80;;
35306;SDS011;21420;52.196;21.416;2023-07-24T02:46:30;6.20;;;5.20;;
35306;SDS011;21420;52.196;21.416;2023-07-24T02:48:58;8.00;;;5.70;;
35306;SDS011;21420;52.196;21.416;2023-07-24T02:51:24;7.60;;;5.50;;
35306;SDS011;21420;52.196;21.416;2023-07-24T02:53:52;6.50;;;5.30;;
35306;SDS011;21420;52.196;21.416;2023-07-24T02:56:20;6.60;;;5.80;;
35306;SDS011;21420;52.196;21.416;2023-07-24T02:58:48;7.60;;;5.20;;
35306;SDS011;21420;52.196;21.416;2023-07-24T03:01:15;7.10;;;5.90;;
35306;SDS011;21420;52.196;21.416;2023-07-24T03:03:42;7.90;;;5.40;;
35306;SDS011;21420;52.196;21.416;2023-07-24T03:06:09;10.00;;;6.10;;
35306;SDS011;21420;52.196;21.416;2023-07-24T03:08:35;7.20;;;5.70;;
35306;SDS011;21420;52.196;21.416;2023-07-24T03:11:04;10.30;;;5.40;;
35306;SDS011;21420;52.196;21.416;2023-07-24T03:13:32;7.00;;;5.70;;
35306;SDS011;21420;52.196;21.416;2023-07-24T03:15:58;9.70;;;5.10;;
35306;SDS011;21420;52.196;21.416;2023-07-24T03:18:25;7.50;;;5.30;;
35306;SDS011;21420;52.196;21.416;2023-07-24T03:20:52;6.90;;;5.30;;
35306;SDS011;21420;52.196;21.416;2023-07-24T03:23:19;9.40;;;5.30;;
35306;SDS011;21420;52.196;21.416;2023-07-24T03:25:46;6.40;;;5.80;;
35306;SDS011;21420;52.196;21.416;2023-07-24T03:28:13;7.90;;;5.70;;
35306;SDS011;21420;52.196;21.416;2023-07-24T03:30:40;7.00;;;5.30;;
35306;SDS011;21420;52.196;21.416;2023-07-24T03:33:06;10.10;;;5.40;;
35306;SDS011;21420;52.196;21.416;2023-07-24T03:35:34;7.00;;;5.30;;
35306;SDS011;21420;52.196;21.416;2023-07-24T03:38:00;7.10;;;5.50;;
35306;SDS011;21420;52.196;21.416;2023-07-24T03:40:27;7.50;;;5.20;;
35306;SDS011;21420;52.196;21.416;2023-07-24T03:42:54;7.60;;;5.70;;
35306;SDS011;21420;52.196;21.416;2023-07-24T03:45:21;7.90;;;5.30;;
35306;SDS011;21420;52.196;21.416;2023-07-24T03:47:48;8.40;;;5.30;;
35306;SDS011;21420;52.196;21.416;2023-07-24T03:50:14;9.20;;;6.00;;
35306;SDS011;21420;52.196;21.416;2023-07-24T03:52:41;8.60;;;5.30;;
35306;SDS011;21420;52.196;21.416;2023-07-24T03:55:09;7.80;;;5.60;;
35306;SDS011;21420;52.196;21.416;2023-07-24T03:57:37;6.60;;;5.00;;
35306;SDS011;21420;52.196;21.416;2023-07-24T04:00:03;7.80;;;4.60;;
35306;SDS011;21420;52.196;21.416;2023-07-24T04:02:37;7.20;;;5.20;;
35306;SDS011;21420;52.196;21.416;2023-07-24T04:05:06;7.30;;;5.30;;
35306;SDS011;21420;52.196;21.416;2023-07-24T04:07:32;6.50;;;4.60;;
35306;SDS011;21420;52.196;21.416;2023-07-24T04:09:59;8.00;;;5.10;;
35306;SDS011;21420;52.196;21.416;2023-07-24T04:12:26;6.90;;;4.60;;
35306;SDS011;21420;52.196;21.416;2023-07-24T04:14:54;5.60;;;5.00;;
35306;SDS011;21420;52.196;21.416;2023-07-24T04:17:22;9.20;;;5.50;;
35306;SDS011;21420;52.196;21.416;2023-07-24T04:19:49;7.00;;;5.10;;
35306;SDS011;21420;52.196;21.416;2023-07-24T04:22:16;5.60;;;4.80;;
35306;SDS011;21420;52.196;21.416;2023-07-24T04:24:42;5.30;;;4.50;;
35306;SDS011;21420;52.196;21.416;2023-07-24T04:27:09;5.90;;;4.90;;
35306;SDS011;21420;52.196;21.416;2023-07-24T04:29:36;7.70;;;5.00;;
35306;SDS011;21420;52.196;21.416;2023-07-24T04:32:03;5.80;;;4.90;;
35306;SDS011;21420;52.196;21.416;2023-07-24T04:34:30;4.90;;;4.30;;
35306;SDS011;21420;52.196;21.416;2023-07-24T04:36:56;5.80;;;4.90;;
35306;SDS011;21420;52.196;21.416;2023-07-24T04:39:23;5.70;;;4.60;;
35306;SDS011;21420;52.196;21.416;2023-07-24T04:41:50;8.30;;;5.10;;
35306;SDS011;21420;52.196;21.416;2023-07-24T04:44:17;7.00;;;4.70;;
35306;SDS011;21420;52.196;21.416;2023-07-24T04:46:43;6.50;;;4.50;;
35306;SDS011;21420;52.196;21.416;2023-07-24T04:49:10;5.30;;;4.80;;
35306;SDS011;21420;52.196;21.416;2023-07-24T04:51:37;6.00;;;4.60;;
35306;SDS011;21420;52.196;21.416;2023-07-24T04:54:03;6.30;;;4.00;;
35306;SDS011;21420;52.196;21.416;2023-07-24T04:56:30;5.80;;;4.20;;
35306;SDS011;21420;52.196;21.416;2023-07-24T04:58:58;6.70;;;4.40;;
35306;SDS011;21420;52.196;21.416;2023-07-24T05:01:24;6.30;;;4.40;;
35306;SDS011;21420;52.196;21.416;2023-07-24T05:03:51;6.20;;;4.60;;
35306;SDS011;21420;52.196;21.416;2023-07-24T05:06:18;7.70;;;4.60;;
35306;SDS011;21420;52.196;21.416;2023-07-24T05:08:44;4.90;;;4.30;;
35306;SDS011;21420;52.196;21.416;2023-07-24T05:11:11;7.10;;;4.70;;
35306;SDS011;21420;52.196;21.416;2023-07-24T05:13:37;7.10;;;4.50;;
35306;SDS011;21420;52.196;21.416;2023-07-24T05:16:04;7.60;;;4.80;;
35306;SDS011;21420;52.196;21.416;2023-07-24T05:18:31;5.30;;;4.70;;
35306;SDS011;21420;52.196;21.416;2023-07-24T05:20:57;8.30;;;5.00;;
35306;SDS011;21420;52.196;21.416;2023-07-24T05:23:24;7.60;;;4.70;;
35306;SDS011;21420;52.196;21.416;2023-07-24T05:26:00;5.70;;;4.40;;
35306;SDS011;21420;52.196;21.416;2023-07-24T05:28:29;5.80;;;4.10;;
35306;SDS011;21420;52.196;21.416;2023-07-24T05:31:00;5.40;;;4.60;;
35306;SDS011;21420;52.196;21.416;2023-07-24T05:33:30;4.60;;;3.90;;
35306;SDS011;21420;52.196;21.416;2023-07-24T05:35:58;6.10;;;4.40;;
35306;SDS011;21420;52.196;21.416;2023-07-24T05:38:26;5.40;;;4.30;;
35306;SDS011;21420;52.196;21.416;2023-07-24T05:40:59;7.40;;;4.40;;
35306;SDS011;21420;52.196;21.416;2023-07-24T05:43:29;5.40;;;4.30;;
35306;SDS011;21420;52.196;21.416;2023-07-24T05:45:57;7.00;;;4.20;;
35306;SDS011;21420;52.196;21.416;2023-07-24T05:48:24;9.40;;;4.20;;
35306;SDS011;21420;52.196;21.416;2023-07-24T05:50:51;6.90;;;4.10;;
35306;SDS011;21420;52.196;21.416;2023-07-24T05:53:18;4.30;;;3.90;;
35306;SDS011;21420;52.196;21.416;2023-07-24T05:55:44;5.30;;;4.00;;
35306;SDS011;21420;52.196;21.416;2023-07-24T05:58:11;5.00;;;3.70;;
35306;SDS011;21420;52.196;21.416;2023-07-24T06:00:38;4.80;;;4.30;;
35306;SDS011;21420;52.196;21.416;2023-07-24T06:03:05;6.40;;;4.60;;
35306;SDS011;21420;52.196;21.416;2023-07-24T06:05:34;9.50;;;4.90;;
35306;SDS011;21420;52.196;21.416;2023-07-24T06:08:01;8.00;;;4.20;;
35306;SDS011;21420;52.196;21.416;2023-07-24T06:10:28;4.30;;;3.80;;
35306;SDS011;21420;52.196;21.416;2023-07-24T06:12:55;5.10;;;3.70;;
35306;SDS011;21420;52.196;21.416;2023-07-24T06:15:21;7.50;;;3.80;;
35306;SDS011;21420;52.196;21.416;2023-07-24T06:17:55;6.70;;;4.00;;
35306;SDS011;21420;52.196;21.416;2023-07-24T06:22:48;5.80;;;3.40;;
35306;SDS011;21420;52.196;21.416;2023-07-24T06:25:15;5.50;;;3.60;;
35306;SDS011;21420;52.196;21.416;2023-07-24T06:27:41;5.20;;;4.20;;
35306;SDS011;21420;52.196;21.416;2023-07-24T06:30:08;5.50;;;3.80;;
35306;SDS011;21420;52.196;21.416;2023-07-24T06:32:41;4.10;;;3.70;;
35306;SDS011;21420;52.196;21.416;2023-07-24T06:35:09;5.50;;;4.00;;
35306;SDS011;21420;52.196;21.416;2023-07-24T06:37:35;6.60;;;4.40;;
35306;SDS011;21420;52.196;21.416;2023-07-24T06:40:02;4.10;;;3.10;;
35306;SDS011;21420;52.196;21.416;2023-07-24T06:42:29;5.00;;;3.20;;
35306;SDS011;21420;52.196;21.416;2023-07-24T06:44:56;5.80;;;3.90;;
35306;SDS011;21420;52.196;21.416;2023-07-24T06:47:22;5.40;;;3.80;;
35306;SDS011;21420;52.196;21.416;2023-07-24T06:49:49;7.40;;;4.10;;
35306;SDS011;21420;52.196;21.416;2023-07-24T06:52:16;8.60;;;3.50;;
35306;SDS011;21420;52.196;21.416;2023-07-24T06:54:42;5.80;;;3.90;;
35306;SDS011;21420;52.196;21.416;2023-07-24T06:57:09;5.60;;;3.90;;
35306;SDS011;21420;52.196;21.416;2023-07-24T06:59:36;4.60;;;3.50;;
35306;SDS011;21420;52.196;21.416;2023-07-24T07:02:03;4.20;;;3.70;;
35306;SDS011;21420;52.196;21.416;2023-07-24T07:04:30;6.50;;;3.70;;
35306;SDS011;21420;52.196;21.416;2023-07-24T07:06:56;13.20;;;3.80;;
35306;SDS011;21420;52.196;21.416;2023-07-24T07:09:23;7.40;;;3.90;;
35306;SDS011;21420;52.196;21.416;2023-07-24T07:11:50;5.60;;;3.00;;
35306;SDS011;21420;52.196;21.416;2023-07-24T07:14:17;7.90;;;4.40;;
35306;SDS011;21420;52.196;21.416;2023-07-24T07:16:43;6.30;;;3.20;;
35306;SDS011;21420;52.196;21.416;2023-07-24T07:19:10;5.10;;;3.40;;
35306;SDS011;21420;52.196;21.416;2023-07-24T07:21:37;4.40;;;3.60;;
35306;SDS011;21420;52.196;21.416;2023-07-24T07:24:04;6.30;;;3.90;;
35306;SDS011;21420;52.196;21.416;2023-07-24T07:26:31;6.10;;;3.50;;
35306;SDS011;21420;52.196;21.416;2023-07-24T07:28:58;7.30;;;3.50;;
35306;SDS011;21420;52.196;21.416;2023-07-24T07:31:26;6.20;;;3.70;;
35306;SDS011;21420;52.196;21.416;2023-07-24T07:33:52;8.30;;;4.30;;
35306;SDS011;21420;52.196;21.416;2023-07-24T07:36:19;6.10;;;3.50;;
35306;SDS011;21420;52.196;21.416;2023-07-24T07:38:48;5.10;;;3.60;;
35306;SDS011;21420;52.196;21.416;2023-07-24T07:41:15;4.90;;;3.20;;
35306;SDS011;21420;52.196;21.416;2023-07-24T07:43:42;4.30;;;3.40;;
35306;SDS011;21420;52.196;21.416;2023-07-24T07:46:09;4.00;;;3.40;;
35306;SDS011;21420;52.196;21.416;2023-07-24T07:48:35;6.80;;;3.20;;
35306;SDS011;21420;52.196;21.416;2023-07-24T07:51:02;4.60;;;2.60;;
35306;SDS011;21420;52.196;21.416;2023-07-24T07:53:29;6.80;;;3.10;;
35306;SDS011;21420;52.196;21.416;2023-07-24T07:55:56;3.40;;;3.10;;
35306;SDS011;21420;52.196;21.416;2023-07-24T07:58:23;3.00;;;2.60;;
35306;SDS011;21420;52.196;21.416;2023-07-24T08:00:50;4.50;;;2.80;;
35306;SDS011;21420;52.196;21.416;2023-07-24T08:03:17;3.70;;;3.10;;
35306;SDS011;21420;52.196;21.416;2023-07-24T08:05:44;3.40;;;2.70;;
35306;SDS011;21420;52.196;21.416;2023-07-24T08:08:11;4.80;;;2.80;;
35306;SDS011;21420;52.196;21.416;2023-07-24T08:10:38;5.10;;;3.20;;
35306;SDS011;21420;52.196;21.416;2023-07-24T08:13:05;3.20;;;2.70;;
35306;SDS011;21420;52.196;21.416;2023-07-24T08:15:36;3.00;;;2.60;;
35306;SDS011;21420;52.196;21.416;2023-07-24T08:18:04;2.80;;;2.60;;
35306;SDS011;21420;52.196;21.416;2023-07-24T08:20:34;4.40;;;2.70;;
35306;SDS011;21420;52.196;21.416;2023-07-24T08:23:02;3.70;;;3.00;;
35306;SDS011;21420;52.196;21.416;2023-07-24T08:25:30;3.60;;;2.90;;
35306;SDS011;21420;52.196;21.416;2023-07-24T08:27:57;3.80;;;2.60;;
35306;SDS011;21420;52.196;21.416;2023-07-24T08:30:32;6.50;;;2.80;;
35306;SDS011;21420;52.196;21.416;2023-07-24T08:33:00;4.50;;;2.90;;
35306;SDS011;21420;52.196;21.416;2023-07-24T08:35:27;5.90;;;2.90;;
35306;SDS011;21420;52.196;21.416;2023-07-24T08:37:54;4.10;;;2.60;;
35306;SDS011;21420;52.196;21.416;2023-07-24T08:40:20;4.90;;;2.90;;
35306;SDS011;21420;52.196;21.416;2023-07-24T08:42:48;6.30;;;3.40;;
35306;SDS011;21420;52.196;21.416;2023-07-24T08:47:44;5.10;;;3.00;;
35306;SDS011;21420;52.196;21.416;2023-07-24T08:50:12;3.60;;;2.80;;
35306;SDS011;21420;52.196;21.416;2023-07-24T08:52:41;5.40;;;3.10;;
35306;SDS011;21420;52.196;21.416;2023-07-24T08:55:10;4.90;;;2.70;;
35306;SDS011;21420;52.196;21.416;2023-07-24T08:57:37;3.60;;;3.20;;
35306;SDS011;21420;52.196;21.416;2023-07-24T09:00:04;3.00;;;2.40;;
35306;SDS011;21420;52.196;21.416;2023-07-24T09:02:35;2.90;;;2.60;;
35306;SDS011;21420;52.196;21.416;2023-07-24T09:05:02;3.90;;;2.90;;
35306;SDS011;21420;52.196;21.416;2023-07-24T09:07:31;5.10;;;2.50;;
35306;SDS011;21420;52.196;21.416;2023-07-24T09:09:58;3.40;;;3.00;;
35306;SDS011;21420;52.196;21.416;2023-07-24T09:12:25;4.10;;;2.90;;
35306;SDS011;21420;52.196;21.416;2023-07-24T09:15:05;3.40;;;3.00;;
35306;SDS011;21420;52.196;21.416;2023-07-24T09:17:33;3.90;;;3.10;;
35306;SDS011;21420;52.196;21.416;2023-07-24T09:20:01;3.00;;;2.70;;
35306;SDS011;21420;52.196;21.416;2023-07-24T09:22:29;3.20;;;2.70;;
35306;SDS011;21420;52.196;21.416;2023-07-24T09:24:56;3.60;;;3.10;;
35306;SDS011;21420;52.196;21.416;2023-07-24T09:27:28;4.00;;;3.20;;
35306;SDS011;21420;52.196;21.416;2023-07-24T09:29:58;4.50;;;3.50;;
35306;SDS011;21420;52.196;21.416;2023-07-24T09:32:25;5.20;;;3.40;;
35306;SDS011;21420;52.196;21.416;2023-07-24T09:34:53;3.30;;;3.00;;
35306;SDS011;21420;52.196;21.416;2023-07-24T09:37:27;3.20;;;3.00;;
35306;SDS011;21420;52.196;21.416;2023-07-24T09:39:56;3.20;;;2.90;;
35306;SDS011;21420;52.196;21.416;2023-07-24T09:44:56;4.50;;;2.90;;
35306;SDS011;21420;52.196;21.416;2023-07-24T09:47:23;2.70;;;2.50;;
35306;SDS011;21420;52.196;21.416;2023-07-24T09:50:09;4.00;;;3.00;;
35306;SDS011;21420;52.196;21.416;2023-07-24T09:52:37;3.30;;;2.80;;
35306;SDS011;21420;52.196;21.416;2023-07-24T09:55:12;3.10;;;2.80;;
35306;SDS011;21420;52.196;21.416;2023-07-24T09:57:46;3.30;;;2.30;;
35306;SDS011;21420;52.196;21.416;2023-07-24T10:02:41;3.60;;;3.20;;
35306;SDS011;21420;52.196;21.416;2023-07-24T10:05:08;4.00;;;3.10;;
35306;SDS011;21420;52.196;21.416;2023-07-24T10:07:35;5.10;;;2.60;;
35306;SDS011;21420;52.196;21.416;2023-07-24T10:10:02;3.00;;;2.70;;
35306;SDS011;21420;52.196;21.416;2023-07-24T10:12:31;2.50;;;2.30;;
35306;SDS011;21420;52.196;21.416;2023-07-24T10:14:58;3.40;;;2.40;;
35306;SDS011;21420;52.196;21.416;2023-07-24T10:17:41;4.90;;;2.70;;
35306;SDS011;21420;52.196;21.416;2023-07-24T10:20:09;4.30;;;2.90;;
35306;SDS011;21420;52.196;21.416;2023-07-24T10:22:42;2.50;;;2.20;;
35306;SDS011;21420;52.196;21.416;2023-07-24T10:25:10;4.40;;;2.30;;
35306;SDS011;21420;52.196;21.416;2023-07-24T10:27:44;4.00;;;2.50;;
35306;SDS011;21420;52.196;21.416;2023-07-24T10:30:13;4.40;;;2.70;;
35306;SDS011;21420;52.196;21.416;2023-07-24T10:33:12;3.70;;;2.60;;
35306;SDS011;21420;52.196;21.416;2023-07-24T10:35:44;3.00;;;2.40;;
35306;SDS011;21420;52.196;21.416;2023-07-24T10:38:13;2.50;;;2.30;;
35306;SDS011;21420;52.196;21.416;2023-07-24T10:40:42;3.40;;;2.90;;
35306;SDS011;21420;52.196;21.416;2023-07-24T10:43:13;3.50;;;3.10;;
35306;SDS011;21420;52.196;21.416;2023-07-24T10:45:52;3.90;;;2.40;;
35306;SDS011;21420;52.196;21.416;2023-07-24T10:48:21;3.30;;;2.80;;
35306;SDS011;21420;52.196;21.416;2023-07-24T10:50:50;3.60;;;2.60;;
35306;SDS011;21420;52.196;21.416;2023-07-24T10:53:20;7.90;;;2.90;;
35306;SDS011;21420;52.196;21.416;2023-07-24T10:55:50;4.00;;;2.60;;
35306;SDS011;21420;52.196;21.416;2023-07-24T10:58:17;3.40;;;2.70;;
35306;SDS011;21420;52.196;21.416;2023-07-24T11:00:44;3.30;;;3.00;;
35306;SDS011;21420;52.196;21.416;2023-07-24T11:03:14;4.10;;;2.70;;
35306;SDS011;21420;52.196;21.416;2023-07-24T11:05:41;4.30;;;3.30;;
35306;SDS011;21420;52.196;21.416;2023-07-24T11:08:16;3.00;;;2.70;;
35306;SDS011;21420;52.196;21.416;2023-07-24T11:10:45;3.80;;;3.00;;
35306;SDS011;21420;52.196;21.416;2023-07-24T11:13:14;3.30;;;3.00;;
35306;SDS011;21420;52.196;21.416;2023-07-24T11:15:42;3.40;;;3.10;;
35306;SDS011;21420;52.196;21.416;2023-07-24T11:18:09;2.90;;;2.70;;
35306;SDS011;21420;52.196;21.416;2023-07-24T11:20:37;3.30;;;2.90;;
35306;SDS011;21420;52.196;21.416;2023-07-24T11:23:09;4.50;;;2.80;;
35306;SDS011;21420;52.196;21.416;2023-07-24T11:25:37;3.70;;;2.70;;
35306;SDS011;21420;52.196;21.416;2023-07-24T11:28:05;4.40;;;3.00;;
35306;SDS011;21420;52.196;21.416;2023-07-24T11:30:32;5.00;;;2.70;;
35306;SDS011;21420;52.196;21.416;2023-07-24T11:33:00;2.80;;;2.60;;
35306;SDS011;21420;52.196;21.416;2023-07-24T11:35:28;9.20;;;3.00;;
35306;SDS011;21420;52.196;21.416;2023-07-24T11:37:57;3.90;;;3.00;;
35306;SDS011;21420;52.196;21.416;2023-07-24T11:40:34;2.90;;;2.60;;
35306;SDS011;21420;52.196;21.416;2023-07-24T11:43:02;3.00;;;2.80;;
35306;SDS011;21420;52.196;21.416;2023-07-24T11:45:30;3.00;;;2.70;;
35306;SDS011;21420;52.196;21.416;2023-07-24T11:47:57;4.50;;;2.70;;
35306;SDS011;21420;52.196;21.416;2023-07-24T11:50:25;3.20;;;2.90;;
35306;SDS011;21420;52.196;21.416;2023-07-24T11:52:52;3.10;;;2.80;;
35306;SDS011;21420;52.196;21.416;2023-07-24T11:55:31;5.60;;;3.30;;
35306;SDS011;21420;52.196;21.416;2023-07-24T11:58:00;4.40;;;3.30;;
35306;SDS011;21420;52.196;21.416;2023-07-24T12:00:28;3.20;;;3.00;;
35306;SDS011;21420;52.196;21.416;2023-07-24T12:03:01;3.80;;;3.20;;
35306;SDS011;21420;52.196;21.416;2023-07-24T12:05:28;3.70;;;3.10;;
35306;SDS011;21420;52.196;21.416;2023-07-24T12:07:55;4.40;;;3.00;;
35306;SDS011;21420;52.196;21.416;2023-07-24T12:10:25;3.50;;;3.20;;
35306;SDS011;21420;52.196;21.416;2023-07-24T12:12:55;6.60;;;3.20;;
35306;SDS011;21420;52.196;21.416;2023-07-24T12:15:26;2.90;;;2.70;;
35306;SDS011;21420;52.196;21.416;2023-07-24T12:17:53;4.50;;;2.70;;
35306;SDS011;21420;52.196;21.416;2023-07-24T12:20:20;3.30;;;2.90;;
35306;SDS011;21420;52.196;21.416;2023-07-24T12:22:47;3.60;;;2.90;;
35306;SDS011;21420;52.196;21.416;2023-07-24T12:25:14;3.90;;;2.80;;
35306;SDS011;21420;52.196;21.416;2023-07-24T12:27:41;3.90;;;3.10;;
35306;SDS011;21420;52.196;21.416;2023-07-24T12:30:08;3.40;;;3.00;;
35306;SDS011;21420;52.196;21.416;2023-07-24T12:32:36;3.10;;;2.70;;
35306;SDS011;21420;52.196;21.416;2023-07-24T12:35:03;3.90;;;3.60;;
35306;SDS011;21420;52.196;21.416;2023-07-24T12:37:30;3.80;;;3.40;;
35306;SDS011;21420;52.196;21.416;2023-07-24T12:39:57;5.70;;;2.90;;
35306;SDS011;21420;52.196;21.416;2023-07-24T12:42:24;3.20;;;2.90;;
35306;SDS011;21420;52.196;21.416;2023-07-24T12:44:50;4.10;;;2.60;;
35306;SDS011;21420;52.196;21.416;2023-07-24T12:47:17;4.90;;;3.10;;
35306;SDS011;21420;52.196;21.416;2023-07-24T12:49:44;3.70;;;3.00;;
35306;SDS011;21420;52.196;21.416;2023-07-24T12:52:10;3.90;;;3.50;;
35306;SDS011;21420;52.196;21.416;2023-07-24T12:54:38;3.80;;;3.30;;
35306;SDS011;21420;52.196;21.416;2023-07-24T12:57:24;3.60;;;3.30;;
35306;SDS011;21420;52.196;21.416;2023-07-24T12:59:53;4.10;;;3.10;;
35306;SDS011;21420;52.196;21.416;2023-07-24T13:02:20;4.90;;;3.20;;
35306;SDS011;21420;52.196;21.416;2023-07-24T13:04:49;5.80;;;3.50;;
35306;SDS011;21420;52.196;21.416;2023-07-24T13:07:16;3.70;;;3.40;;
35306;SDS011;21420;52.196;21.416;2023-07-24T13:09:43;4.40;;;2.90;;
35306;SDS011;21420;52.196;21.416;2023-07-24T13:12:10;5.90;;;3.60;;
35306;SDS011;21420;52.196;21.416;2023-07-24T13:14:37;7.60;;;7.10;;
35306;SDS011;21420;52.196;21.416;2023-07-24T13:17:08;7.90;;;5.10;;
35306;SDS011;21420;52.196;21.416;2023-07-24T13:19:35;5.00;;;3.10;;
35306;SDS011;21420;52.196;21.416;2023-07-24T13:22:02;3.20;;;2.80;;
35306;SDS011;21420;52.196;21.416;2023-07-24T13:24:29;3.60;;;2.90;;
35306;SDS011;21420;52.196;21.416;2023-07-24T13:26:56;3.60;;;3.30;;
35306;SDS011;21420;52.196;21.416;2023-07-24T13:29:23;5.00;;;3.00;;
35306;SDS011;21420;52.196;21.416;2023-07-24T13:31:52;3.90;;;3.20;;
35306;SDS011;21420;52.196;21.416;2023-07-24T13:34:19;4.10;;;2.90;;
35306;SDS011;21420;52.196;21.416;2023-07-24T13:36:47;4.40;;;3.10;;
35306;SDS011;21420;52.196;21.416;2023-07-24T13:39:14;3.60;;;2.80;;
35306;SDS011;21420;52.196;21.416;2023-07-24T13:41:41;3.60;;;2.90;;
35306;SDS011;21420;52.196;21.416;2023-07-24T13:44:08;5.40;;;3.10;;
35306;SDS011;21420;52.196;21.416;2023-07-24T13:46:36;4.10;;;3.50;;
35306;SDS011;21420;52.196;21.416;2023-07-24T13:49:06;3.60;;;3.30;;
35306;SDS011;21420;52.196;21.416;2023-07-24T13:51:34;4.70;;;4.10;;
35306;SDS011;21420;52.196;21.416;2023-07-24T13:54:03;4.30;;;3.90;;
35306;SDS011;21420;52.196;21.416;2023-07-24T13:56:29;4.40;;;4.00;;
35306;SDS011;21420;52.196;21.416;2023-07-24T13:59:00;5.50;;;3.60;;
35306;SDS011;21420;52.196;21.416;2023-07-24T14:01:27;5.60;;;3.70;;
35306;SDS011;21420;52.196;21.416;2023-07-24T14:03:55;5.90;;;4.00;;
35306;SDS011;21420;52.196;21.416;2023-07-24T14:06:22;5.40;;;3.40;;
35306;SDS011;21420;52.196;21.416;2023-07-24T14:08:48;5.00;;;3.50;;
35306;SDS011;21420;52.196;21.416;2023-07-24T14:11:15;9.80;;;4.10;;
35306;SDS011;21420;52.196;21.416;2023-07-24T14:13:42;7.30;;;3.90;;
35306;SDS011;21420;52.196;21.416;2023-07-24T14:16:11;4.40;;;4.00;;
35306;SDS011;21420;52.196;21.416;2023-07-24T14:18:45;6.50;;;5.40;;
35306;SDS011;21420;52.196;21.416;2023-07-24T14:21:11;6.40;;;3.80;;
35306;SDS011;21420;52.196;21.416;2023-07-24T14:23:38;7.40;;;4.20;;
35306;SDS011;21420;52.196;21.416;2023-07-24T14:26:05;10.50;;;5.70;;
35306;SDS011;21420;52.196;21.416;2023-07-24T14:28:31;6.40;;;4.70;;
35306;SDS011;21420;52.196;21.416;2023-07-24T14:30:59;5.70;;;4.10;;
35306;SDS011;21420;52.196;21.416;2023-07-24T14:33:26;7.00;;;3.50;;
35306;SDS011;21420;52.196;21.416;2023-07-24T14:35:53;5.70;;;3.90;;
35306;SDS011;21420;52.196;21.416;2023-07-24T14:38:21;5.70;;;3.90;;
35306;SDS011;21420;52.196;21.416;2023-07-24T14:40:48;6.80;;;3.60;;
35306;SDS011;21420;52.196;21.416;2023-07-24T14:43:14;3.60;;;3.30;;
35306;SDS011;21420;52.196;21.416;2023-07-24T14:45:41;4.90;;;4.20;;
35306;SDS011;21420;52.196;21.416;2023-07-24T14:48:08;4.90;;;3.60;;
35306;SDS011;21420;52.196;21.416;2023-07-24T14:50:35;6.60;;;3.80;;
35306;SDS011;21420;52.196;21.416;2023-07-24T14:53:02;4.30;;;3.80;;
35306;SDS011;21420;52.196;21.416;2023-07-24T14:55:29;6.00;;;3.80;;